Time;durP1;ratioP1;P1;durP2;ratioP2;P2;SDS_P1;SDS_P2;PMS_P1;PMS_P2;Temp;Humidity;BMP_temperature;BMP_pressure;BME280_temperature;BME280_humidity;BME280_pressure;Samples;Min_cycle;Max_cycle;Signal;HPM_P1;HPM_P2
2021/06/13 00:01:51;;;;;;;10.38;2.78;;;15.00;99.90;;;15.62;64.47;101499.81;5099238;28;20195;-66
2021/06/13 00:04:18;;;;;;;8.77;2.30;;;14.90;99.90;;;15.60;63.95;101503.41;5093266;28;20558;-66
2021/06/13 00:06:44;;;;;;;13.35;2.40;;;14.90;99.90;;;15.62;64.03;101510.34;5074780;28;20243;-65
2021/06/13 00:09:10;;;;;;;11.80;2.92;;;14.90;99.90;;;15.63;63.86;101500.63;5092708;28;20187;-66
2021/06/13 00:11:37;;;;;;;9.98;2.95;;;14.90;99.90;;;15.59;63.76;101499.91;5092597;28;20183;-66
2021/06/13 00:14:04;;;;;;;9.57;2.33;;;14.90;99.90;;;15.55;63.46;101492.22;5092832;28;20179;-65
2021/06/13 00:16:31;;;;;;;9.50;2.50;;;14.80;99.90;;;15.47;63.17;101504.91;5092282;28;20219;-65
2021/06/13 00:18:59;;;;;;;8.00;2.75;;;14.80;99.90;;;15.43;63.25;101512.09;5092809;28;20220;-67
2021/06/13 00:21:25;;;;;;;10.05;2.30;;;14.80;99.90;;;15.41;62.91;101521.84;5092316;28;20192;-67
2021/06/13 00:23:51;;;;;;;9.65;3.15;;;14.80;99.90;;;15.40;62.65;101514.00;5092464;28;20188;-65
2021/06/13 00:26:19;;;;;;;11.00;3.22;;;14.70;99.90;;;15.38;62.31;101507.91;5092639;28;20574;-65
2021/06/13 00:28:45;;;;;;;10.10;2.65;;;14.70;99.90;;;15.35;61.83;101527.38;5074403;28;20199;-66
2021/06/13 00:31:11;;;;;;;9.38;2.92;;;14.70;99.90;;;15.34;61.75;101528.28;5097249;28;20187;-66
2021/06/13 00:33:38;;;;;;;8.73;2.25;;;14.60;99.90;;;15.35;61.64;101531.78;5092382;28;20554;-66
2021/06/13 00:36:07;;;;;;;8.57;2.53;;;14.60;99.90;;;15.34;61.39;101535.38;5092312;28;20290;-64
2021/06/13 00:38:33;;;;;;;10.30;2.60;;;14.60;99.90;;;15.29;61.14;101532.91;5092195;28;20641;-65
2021/06/13 00:41:00;;;;;;;10.18;2.70;;;14.60;99.90;;;15.25;60.94;101527.84;5092330;28;20263;-66
2021/06/13 00:43:26;;;;;;;11.05;2.72;;;14.60;99.90;;;15.21;60.99;101527.13;5092436;28;20187;-67
2021/06/13 00:45:53;;;;;;;9.70;2.42;;;14.50;99.90;;;15.18;60.51;101537.81;5091595;28;20235;-65
2021/06/13 00:48:19;;;;;;;12.88;2.30;;;14.50;99.90;;;15.13;60.48;101531.88;5090990;28;20608;-66
2021/06/13 00:50:50;;;;;;;10.00;2.50;;;14.50;99.90;;;15.14;60.37;101530.09;5073783;28;20249;-65
2021/06/13 00:53:20;;;;;;;11.48;2.55;;;14.50;99.90;;;15.16;60.57;101530.88;5074061;28;20192;-65
2021/06/13 00:55:56;;;;;;;12.40;2.17;;;14.40;99.90;;;15.14;60.29;101538.00;5073888;28;20260;-66
2021/06/13 00:58:23;;;;;;;8.38;2.10;;;14.40;99.90;;;15.08;60.23;101534.72;5093222;28;20664;-64
2021/06/13 01:00:49;;;;;;;15.82;2.47;;;14.40;99.90;;;15.05;60.44;101537.47;5097793;28;20179;-66
2021/06/13 01:03:17;;;;;;;12.52;2.47;;;14.40;99.90;;;15.06;60.08;101540.97;5102543;28;20211;-65
2021/06/13 01:05:44;;;;;;;11.65;2.35;;;14.40;99.90;;;15.08;60.21;101545.25;5092956;28;20298;-65
2021/06/13 01:08:24;;;;;;;8.63;2.38;;;14.30;99.90;;;15.03;60.23;101539.31;5077236;28;20663;-65
2021/06/13 01:11:08;;;;;;;9.90;2.58;;;14.30;99.90;;;14.99;60.11;101542.13;5076096;28;20191;-65
2021/06/13 01:13:44;;;;;;;7.82;2.20;;;14.30;99.90;;;14.95;60.33;101544.03;5092894;28;20224;-65
2021/06/13 01:16:25;;;;;;;9.18;2.20;;;14.30;99.90;;;14.94;60.35;101552.88;5092576;28;20203;-65
2021/06/13 01:19:00;;;;;;;6.10;1.80;;;14.30;99.90;;;14.95;60.56;101559.03;5075702;28;20210;-65
2021/06/13 01:21:33;;;;;;;7.82;2.25;;;14.30;99.90;;;14.94;60.60;101552.88;5093571;28;20175;-64
2021/06/13 01:24:18;;;;;;;12.98;2.78;;;14.30;99.90;;;14.97;60.66;101562.41;5090918;28;20603;-65
2021/06/13 01:27:04;;;;;;;6.97;2.00;;;14.20;99.90;;;14.93;61.06;101566.13;5092249;28;20225;-65
2021/06/13 01:29:35;;;;;;;8.20;2.20;;;14.30;99.90;;;14.89;61.50;101564.53;5091130;28;20202;-65
2021/06/13 01:32:09;;;;;;;7.45;2.30;;;14.20;99.90;;;14.86;61.79;101560.25;5087813;28;20570;-65
2021/06/13 01:34:39;;;;;;;9.48;2.60;;;14.20;99.90;;;14.86;61.96;101559.38;5096066;28;20222;-66
2021/06/13 01:37:16;;;;;;;7.75;2.08;;;14.20;99.90;;;14.86;62.05;101565.53;5090355;28;20315;-65
2021/06/13 01:39:46;;;;;;;12.68;2.90;;;14.20;99.90;;;14.84;62.57;101562.09;5091574;28;20228;-65
2021/06/13 01:42:18;;;;;;;8.13;2.35;;;14.20;99.90;;;14.81;62.73;101561.34;5090372;28;20188;-65
2021/06/13 01:44:55;;;;;;;9.82;2.90;;;14.20;99.90;;;14.80;62.48;101564.94;5073648;28;20585;-65
2021/06/13 01:47:26;;;;;;;7.70;2.33;;;14.20;99.90;;;14.76;62.41;101568.59;5090351;28;20226;-65
2021/06/13 01:49:59;;;;;;;12.10;3.40;;;14.10;99.90;;;14.74;62.35;101560.75;5090385;28;20567;-65
2021/06/13 01:52:28;;;;;;;11.38;2.40;;;14.10;99.90;;;14.71;62.54;101563.53;5073695;28;20685;-66
2021/06/13 01:54:58;;;;;;;11.18;2.35;;;14.00;99.90;;;14.71;62.60;101573.19;5073620;28;20215;-65
2021/06/13 01:57:26;;;;;;;7.30;2.03;;;14.00;99.90;;;14.67;62.34;101569.81;5092045;28;20215;-66
2021/06/13 02:00:16;;;;;;;9.43;2.22;;;14.00;99.90;;;14.61;62.50;101580.63;5094310;28;20206;-65
2021/06/13 02:02:55;;;;;;;10.57;2.45;;;13.90;99.90;;;14.59;62.87;101579.81;5091221;28;20199;-64
2021/06/13 02:05:36;;;;;;;9.18;2.22;;;13.90;99.90;;;14.54;62.54;101584.41;5078022;28;20187;-66
2021/06/13 02:08:03;;;;;;;10.45;2.90;;;13.90;99.90;;;14.53;62.68;101585.34;5097130;28;20191;-65
2021/06/13 02:10:34;;;;;;;10.27;2.13;;;13.90;99.90;;;14.55;62.65;101580.00;5076861;28;20198;-66
2021/06/13 02:13:01;;;;;;;11.40;2.40;;;13.90;99.90;;;14.57;62.38;101592.19;5095262;28;20195;-66
2021/06/13 02:15:33;;;;;;;8.13;2.25;;;13.90;99.90;;;14.55;62.30;101594.03;5076863;28;20702;-66
2021/06/13 02:18:05;;;;;;;6.20;1.83;;;13.90;99.90;;;14.50;62.80;101590.72;5076969;28;20747;-65
2021/06/13 02:20:34;;;;;;;8.60;2.00;;;13.80;99.90;;;14.47;62.71;101593.47;5076660;28;20195;-64
2021/06/13 02:23:01;;;;;;;11.55;2.35;;;13.80;99.90;;;14.46;62.85;101596.16;5095481;28;20184;-65
2021/06/13 02:25:28;;;;;;;9.80;2.20;;;13.80;99.90;;;14.45;62.84;101595.31;5094924;28;20262;-65
2021/06/13 02:28:00;;;;;;;10.18;2.45;;;13.80;99.90;;;14.45;62.86;101597.09;5076826;28;20281;-66
2021/06/13 02:30:38;;;;;;;11.18;2.58;;;13.80;99.90;;;14.39;62.75;101598.19;5077155;28;20191;-66
2021/06/13 02:33:08;;;;;;;9.32;2.58;;;13.70;99.90;;;14.36;63.04;101600.09;5097577;28;20632;-66
2021/06/13 02:35:39;;;;;;;9.75;2.38;;;13.70;99.90;;;14.33;63.24;101598.44;5099858;28;20187;-65
2021/06/13 02:38:06;;;;;;;9.02;2.60;;;13.70;99.90;;;14.34;63.37;101605.41;5099762;28;20239;-65
2021/06/13 02:40:33;;;;;;;12.02;2.42;;;13.70;99.90;;;14.36;63.25;101614.13;5096842;28;20183;-65
2021/06/13 02:43:04;;;;;;;9.57;2.58;;;13.70;99.90;;;14.35;63.30;101619.44;5076559;28;20192;-65
2021/06/13 02:45:36;;;;;;;12.43;2.30;;;13.70;99.90;;;14.32;63.36;101622.16;5076576;28;20629;-67
2021/06/13 02:48:04;;;;;;;14.00;2.38;;;13.70;99.90;;;14.29;63.57;101623.16;5076567;28;20278;-64
2021/06/13 02:50:34;;;;;;;8.15;2.00;;;13.60;99.90;;;14.26;63.56;101620.66;5093036;28;20210;-65
2021/06/13 02:53:13;;;;;;;11.80;2.83;;;13.60;99.90;;;14.21;63.84;101633.09;5094329;28;20650;-65
2021/06/13 02:55:50;;;;;;;8.70;2.45;;;13.60;99.90;;;14.18;64.14;101633.22;5076147;28;20198;-65
2021/06/13 02:58:36;;;;;;;8.05;2.30;;;13.50;99.90;;;14.16;64.05;101635.03;5093230;28;20211;-66
2021/06/13 03:01:06;;;;;;;9.13;2.20;;;13.50;99.90;;;14.16;64.27;101644.72;5094104;28;20183;-65
2021/06/13 03:03:35;;;;;;;10.45;2.45;;;13.50;99.90;;;14.14;64.20;101646.53;5076103;28;20192;-66
2021/06/13 03:06:10;;;;;;;10.00;2.20;;;13.50;99.90;;;14.03;64.67;101649.59;5093072;28;20817;-65
2021/06/13 03:08:39;;;;;;;9.07;2.33;;;13.40;99.90;;;13.99;64.67;101645.34;5083908;28;20192;-66
2021/06/13 03:11:10;;;;;;;10.30;2.40;;;13.30;99.90;;;13.98;64.84;101648.91;5075748;28;20191;-65
2021/06/13 03:13:40;;;;;;;9.43;2.58;;;13.40;99.90;;;13.99;64.98;101661.13;5092832;28;20728;-65
2021/06/13 03:16:09;;;;;;;9.88;2.15;;;13.30;99.90;;;13.99;65.07;101671.66;5092866;28;20864;-65
2021/06/13 03:18:38;;;;;;;9.88;2.00;;;13.30;99.90;;;13.95;65.34;101661.31;5075869;28;20188;-65
2021/06/13 03:21:07;;;;;;;11.68;2.38;;;13.30;99.90;;;13.91;65.36;101664.94;5093656;28;20183;-66
2021/06/13 03:23:36;;;;;;;10.52;2.47;;;13.30;99.90;;;13.92;65.42;101662.25;5093761;28;20180;-65
2021/06/13 03:26:04;;;;;;;6.95;2.40;;;13.30;99.90;;;13.94;65.47;101664.81;5092528;28;20212;-65
2021/06/13 03:28:36;;;;;;;10.80;2.40;;;13.30;99.90;;;13.92;65.89;101675.41;5094016;28;20171;-65
2021/06/13 03:31:06;;;;;;;8.23;2.70;;;13.30;99.90;;;13.96;66.07;101678.78;5075436;28;20191;-66
2021/06/13 03:33:39;;;;;;;8.65;2.28;;;13.30;99.90;;;13.98;66.02;101685.75;5075573;28;20308;-65
2021/06/13 03:36:08;;;;;;;9.27;2.17;;;13.30;99.90;;;13.96;66.30;101690.19;5095518;28;20206;-65
2021/06/13 03:38:37;;;;;;;8.18;2.42;;;13.30;99.90;;;13.92;66.42;101692.97;5095358;28;20588;-66
2021/06/13 03:41:07;;;;;;;10.43;2.50;;;13.30;99.90;;;13.90;66.70;101686.91;5095338;28;20201;-66
2021/06/13 03:43:35;;;;;;;9.43;2.35;;;13.30;99.90;;;13.93;66.47;101687.69;5113691;28;20718;-65
2021/06/13 03:46:02;;;;;;;10.95;2.30;;;13.30;99.90;;;13.92;66.78;101699.09;5095340;28;20215;-66
2021/06/13 03:48:31;;;;;;;13.65;2.35;;;13.30;99.90;;;13.96;66.72;101695.47;5113756;28;20194;-65
2021/06/13 03:51:00;;;;;;;9.55;2.45;;;13.30;99.90;;;14.01;66.64;101706.69;5113200;28;20186;-65
2021/06/13 03:53:27;;;;;;;11.30;2.28;;;13.40;99.90;;;14.06;66.56;101701.25;5113484;28;20183;-65
2021/06/13 03:55:59;;;;;;;11.60;2.63;;;13.50;99.90;;;14.09;66.75;101712.53;5094939;28;20214;-65
2021/06/13 03:58:28;;;;;;;8.73;2.42;;;13.50;99.90;;;14.18;66.63;101712.19;5113407;28;20553;-65
2021/06/13 04:00:58;;;;;;;8.85;2.25;;;13.60;99.90;;;14.19;66.55;101707.78;5113207;28;20232;-65
2021/06/13 04:03:28;;;;;;;20.13;3.00;;;13.60;99.90;;;14.17;66.81;101713.09;5111977;28;20186;-65
2021/06/13 04:05:57;;;;;;;12.60;2.60;;;13.70;99.90;;;14.21;66.42;101714.72;5111243;28;20215;-66
2021/06/13 04:08:26;;;;;;;9.50;2.55;;;13.70;99.90;;;14.20;66.42;101718.25;5093586;28;20187;-65
2021/06/13 04:10:54;;;;;;;9.93;2.22;;;13.70;99.90;;;14.21;66.55;101717.34;5095562;28;20282;-66
2021/06/13 04:13:23;;;;;;;7.60;2.30;;;13.80;99.90;;;14.25;66.50;101716.34;5092715;28;20191;-66
2021/06/13 04:15:51;;;;;;;11.73;2.33;;;13.80;99.90;;;14.30;66.58;101719.66;5092296;28;20211;-65
2021/06/13 04:18:19;;;;;;;9.07;2.05;;;13.80;99.90;;;14.33;66.24;101719.56;5092659;28;20211;-65
2021/06/13 04:20:47;;;;;;;9.68;2.50;;;13.90;99.90;;;14.36;66.40;101723.84;5091576;28;20656;-68
2021/06/13 04:23:15;;;;;;;9.52;2.45;;;13.90;99.90;;;14.38;66.24;101724.66;5092612;28;20191;-67
2021/06/13 04:25:45;;;;;;;10.02;2.40;;;13.90;99.90;;;14.41;66.40;101725.41;5092594;28;20278;-66
2021/06/13 04:28:15;;;;;;;16.67;3.08;;;14.00;99.90;;;14.45;66.02;101724.38;5074209;28;20191;-65
2021/06/13 04:30:42;;;;;;;10.98;2.35;;;14.00;99.90;;;14.48;65.90;101726.91;5092262;28;20210;-65
2021/06/13 04:33:12;;;;;;;9.35;2.00;;;14.10;99.90;;;14.44;65.78;101727.06;5092344;28;20563;-67
2021/06/13 04:35:38;;;;;;;9.18;2.00;;;14.00;99.90;;;14.42;65.82;101724.50;5074013;28;20187;-68
2021/06/13 04:38:05;;;;;;;7.93;2.10;;;14.00;99.90;;;14.43;66.01;101734.13;5092220;28;20214;-66
2021/06/13 04:40:33;;;;;;;10.82;2.58;;;14.00;99.90;;;14.41;66.19;101737.72;5101449;28;20194;-65
2021/06/13 04:43:01;;;;;;;10.05;2.13;;;14.00;99.90;;;14.38;66.11;101741.34;5094496;28;20183;-66
2021/06/13 04:45:28;;;;;;;10.88;2.55;;;14.00;99.90;;;14.40;66.43;101726.31;5073904;28;20187;-68
2021/06/13 04:47:55;;;;;;;10.95;2.65;;;14.00;99.90;;;14.48;66.16;101737.44;5092104;28;20195;-66
2021/06/13 04:50:22;;;;;;;9.93;2.13;;;14.00;99.90;;;14.52;66.11;101736.41;5091857;28;20187;-66
2021/06/13 04:52:49;;;;;;;7.97;1.90;;;14.10;99.90;;;14.52;65.98;101735.53;5092105;28;20194;-65
2021/06/13 04:55:36;;;;;;;10.80;2.20;;;14.10;99.90;;;14.55;65.74;101743.34;5090768;28;20199;-66
2021/06/13 04:58:19;;;;;;;11.00;2.15;;;14.10;99.90;;;14.53;65.91;101751.31;5092093;28;20694;-66
2021/06/13 05:00:46;;;;;;;8.30;2.03;;;14.10;99.90;;;14.55;65.87;101754.72;5091404;28;20686;-65
2021/06/13 05:03:13;;;;;;;9.80;2.25;;;14.10;99.90;;;14.56;65.60;101747.69;5092074;28;20187;-66
2021/06/13 05:05:40;;;;;;;9.88;2.40;;;14.20;99.90;;;14.55;65.68;101741.56;5092105;28;20233;-68
2021/06/13 05:08:07;;;;;;;10.90;2.20;;;14.10;99.90;;;14.54;65.78;101753.00;5092016;28;20191;-67
2021/06/13 05:10:33;;;;;;;8.85;2.22;;;14.20;99.90;;;14.52;66.01;101754.84;5096545;28;20401;-66
2021/06/13 05:13:00;;;;;;;12.55;2.58;;;14.20;99.90;;;14.52;65.72;101749.56;5097546;28;20209;-65
2021/06/13 05:15:28;;;;;;;11.55;2.35;;;14.10;99.90;;;14.54;65.86;101750.38;5091504;28;20199;-67
2021/06/13 05:17:55;;;;;;;12.77;2.28;;;14.20;99.90;;;14.57;65.85;101752.03;5091571;28;20222;-67
2021/06/13 05:20:22;;;;;;;10.57;2.40;;;14.20;99.90;;;14.57;66.00;101752.91;5091345;28;20541;-67
2021/06/13 05:22:58;;;;;;;9.63;2.25;;;14.20;99.90;;;14.61;65.71;101758.91;5073614;28;20213;-66
2021/06/13 05:25:29;;;;;;;8.65;2.25;;;14.20;99.90;;;14.66;65.74;101772.78;5073514;28;20195;-66
2021/06/13 05:27:57;;;;;;;11.40;2.38;;;14.30;99.90;;;14.63;65.78;101767.63;5073297;28;20191;-66
2021/06/13 05:30:25;;;;;;;9.73;2.35;;;14.30;99.90;;;14.61;65.87;101762.41;5093522;28;20632;-66
2021/06/13 05:32:53;;;;;;;7.80;2.28;;;14.30;99.90;;;14.60;65.89;101768.59;5094968;28;20190;-66
2021/06/13 05:35:21;;;;;;;9.05;1.92;;;14.30;99.90;;;14.62;65.89;101771.16;5096036;28;20610;-66
2021/06/13 05:37:48;;;;;;;12.80;2.20;;;14.30;99.90;;;14.67;65.81;101766.56;5077637;28;20563;-65
2021/06/13 05:40:17;;;;;;;9.15;2.45;;;14.30;99.90;;;14.68;65.54;101766.56;5095572;28;20180;-65
2021/06/13 05:42:44;;;;;;;9.85;2.70;;;14.40;99.90;;;14.72;65.48;101775.16;5095860;28;20191;-65
2021/06/13 05:45:13;;;;;;;10.77;2.28;;;14.40;99.90;;;14.71;65.49;101779.59;5095779;28;20198;-66
2021/06/13 05:47:41;;;;;;;12.43;2.47;;;14.40;99.90;;;14.72;65.51;101785.72;5097654;28;20683;-65
2021/06/13 05:50:12;;;;;;;13.85;2.15;;;14.40;99.90;;;14.77;65.72;101783.75;5081270;28;20254;-65
2021/06/13 05:52:40;;;;;;;11.30;2.30;;;14.50;99.90;;;14.86;65.44;101797.47;5096549;28;20222;-66
2021/06/13 05:55:10;;;;;;;8.63;2.22;;;14.60;99.90;;;14.93;65.35;101793.69;5095513;28;20197;-65
2021/06/13 05:57:37;;;;;;;11.88;2.85;;;14.70;99.90;;;14.91;65.40;101795.53;5095364;28;20203;-65
2021/06/13 06:00:09;;;;;;;8.23;2.38;;;14.70;99.90;;;14.92;65.41;101799.00;5097937;28;20196;-66
2021/06/13 06:02:43;;;;;;;11.80;2.22;;;14.70;99.90;;;14.94;65.14;101805.94;5094095;28;20195;-67
2021/06/13 06:05:13;;;;;;;7.82;2.05;;;14.70;99.90;;;14.98;65.16;101818.09;5077130;28;20202;-66
2021/06/13 06:07:40;;;;;;;9.43;2.60;;;14.70;99.90;;;14.97;65.11;101805.81;5095236;28;20207;-65
2021/06/13 06:10:10;;;;;;;7.10;1.80;;;14.70;99.90;;;15.00;65.15;101815.41;5076942;28;20198;-64
2021/06/13 06:12:39;;;;;;;11.88;2.40;;;14.80;99.90;;;15.07;64.62;101817.75;5099818;28;20192;-66
2021/06/13 06:15:09;;;;;;;8.65;1.95;;;14.80;99.90;;;15.16;64.87;101816.53;5104003;28;20725;-65
2021/06/13 06:17:36;;;;;;;11.63;2.47;;;14.90;99.90;;;15.23;64.59;101832.97;5115177;28;20207;-65
2021/06/13 06:20:04;;;;;;;10.93;2.17;;;15.00;99.90;;;15.25;64.39;101831.16;5115536;28;20796;-65
2021/06/13 06:22:32;;;;;;;8.98;2.65;;;15.00;99.90;;;15.22;64.38;101826.84;5097040;28;20186;-65
2021/06/13 06:24:59;;;;;;;13.60;2.70;;;15.00;99.90;;;15.18;64.32;101832.28;5115377;28;20183;-65
2021/06/13 06:27:26;;;;;;;11.65;2.15;;;15.00;99.90;;;15.20;64.75;101825.19;5115169;28;20202;-66
2021/06/13 06:29:53;;;;;;;7.38;2.25;;;15.00;99.90;;;15.24;64.49;101829.44;5115155;28;20187;-65
2021/06/13 06:32:20;;;;;;;8.88;1.98;;;15.00;99.90;;;15.20;64.42;101826.06;5114915;28;20183;-66
2021/06/13 06:34:46;;;;;;;11.23;2.50;;;14.90;99.90;;;15.18;64.34;101832.28;5096808;28;20186;-65
2021/06/13 06:37:13;;;;;;;8.05;2.42;;;14.90;99.90;;;15.14;64.67;101828.91;5114859;28;20214;-66
2021/06/13 06:39:41;;;;;;;9.98;2.25;;;14.90;99.90;;;15.17;64.47;101833.22;5114921;28;20182;-65
2021/06/13 06:42:08;;;;;;;8.18;2.45;;;14.90;99.90;;;15.23;64.38;101827.69;5095493;28;20201;-65
2021/06/13 06:44:35;;;;;;;9.73;2.10;;;15.00;99.90;;;15.31;64.25;101829.13;5099406;28;20713;-65
2021/06/13 06:47:02;;;;;;;12.15;2.55;;;15.10;99.90;;;15.40;63.70;101827.94;5094454;28;20221;-65
2021/06/13 06:49:29;;;;;;;10.55;2.67;;;15.20;99.90;;;15.50;63.77;101837.22;5094470;28;20184;-65
2021/06/13 06:51:56;;;;;;;10.10;2.40;;;15.30;99.90;;;15.54;63.83;101842.28;5075844;28;20560;-65
2021/06/13 06:54:23;;;;;;;8.35;2.40;;;15.40;99.90;;;15.55;63.29;101840.53;5094432;28;20233;-66
2021/06/13 06:56:51;;;;;;;11.68;2.15;;;15.40;99.90;;;15.54;63.19;101839.66;5075881;28;20744;-65
2021/06/13 06:59:18;;;;;;;12.57;2.30;;;15.40;99.90;;;15.51;63.24;101833.63;5092700;28;20211;-65
2021/06/13 07:01:45;;;;;;;10.60;2.53;;;15.40;99.90;;;15.53;63.39;101835.31;5094003;28;20198;-66
2021/06/13 07:04:12;;;;;;;12.05;2.70;;;15.40;99.90;;;15.58;63.50;101845.69;5094246;28;20624;-65
2021/06/13 07:06:39;;;;;;;12.25;2.30;;;15.50;99.90;;;15.66;63.13;101854.13;5094187;28;20195;-65
2021/06/13 07:09:06;;;;;;;10.13;2.10;;;15.50;99.90;;;15.73;63.12;101850.34;5094180;28;20663;-65
2021/06/13 07:11:32;;;;;;;9.90;2.65;;;15.60;99.90;;;15.82;62.59;101849.97;5096813;28;20198;-66
2021/06/13 07:14:00;;;;;;;7.88;1.88;;;15.70;99.90;;;15.90;62.25;101850.53;5096170;28;20188;-65
2021/06/13 07:16:27;;;;;;;9.02;2.15;;;15.80;99.90;;;15.98;62.06;101856.34;5093543;28;20214;-66
2021/06/13 07:18:54;;;;;;;9.63;2.30;;;15.90;99.90;;;16.05;61.65;101848.13;5096749;28;20584;-65
2021/06/13 07:21:21;;;;;;;9.45;2.25;;;16.00;99.90;;;16.11;61.39;101854.91;5093577;28;20187;-66
2021/06/13 07:23:47;;;;;;;9.45;2.22;;;16.10;99.90;;;16.16;61.46;101850.28;5094002;28;20561;-65
2021/06/13 07:26:14;;;;;;;11.20;2.75;;;16.20;99.90;;;16.19;60.96;101844.91;5075717;28;20218;-66
2021/06/13 07:28:41;;;;;;;10.73;2.42;;;16.20;99.90;;;16.23;60.74;101849.97;5093695;28;20187;-66
2021/06/13 07:31:09;;;;;;;8.98;2.55;;;16.30;99.90;;;16.25;60.39;101849.91;5093492;28;20180;-65
2021/06/13 07:33:36;;;;;;;7.22;2.03;;;16.30;99.90;;;16.26;59.99;101863.03;5094638;28;20183;-66
2021/06/13 07:36:05;;;;;;;8.65;2.30;;;16.30;99.90;;;16.23;59.99;101860.53;5076015;28;20226;-65
2021/06/13 07:38:32;;;;;;;8.68;2.00;;;16.30;99.90;;;16.26;59.79;101859.53;5094414;28;20286;-65
2021/06/13 07:40:59;;;;;;;7.30;2.10;;;16.30;99.90;;;16.23;59.55;101862.31;5094037;28;20597;-65
2021/06/13 07:43:26;;;;;;;9.02;2.28;;;16.30;99.90;;;16.21;59.56;101865.03;5075995;28;20199;-65
2021/06/13 07:45:53;;;;;;;10.57;2.05;;;16.30;99.90;;;16.25;59.62;101863.97;5093966;28;20566;-66
2021/06/13 07:48:21;;;;;;;10.68;2.70;;;16.30;99.90;;;16.31;59.41;101876.06;5098051;28;20552;-66
2021/06/13 07:50:48;;;;;;;8.15;1.83;;;16.30;99.90;;;16.25;59.35;101876.31;5094365;28;20187;-65
2021/06/13 07:53:15;;;;;;;9.75;2.08;;;16.30;99.90;;;16.26;59.42;101883.31;5094294;28;20195;-66
2021/06/13 07:55:42;;;;;;;8.70;2.25;;;16.30;99.90;;;16.23;59.12;101875.53;5093117;28;20191;-68
2021/06/13 07:58:11;;;;;;;14.80;2.83;;;16.30;99.90;;;16.19;59.49;101877.44;5093164;28;20212;-66
2021/06/13 08:00:39;;;;;;;10.13;2.47;;;16.20;99.90;;;16.18;59.43;101891.56;5093384;28;20240;-65
2021/06/13 08:03:06;;;;;;;11.48;3.25;;;16.20;99.90;;;16.20;59.49;101894.16;5075271;28;20221;-67
2021/06/13 08:05:35;;;;;;;15.57;3.03;;;16.20;99.90;;;16.24;59.28;101887.81;5093040;28;20218;-65
2021/06/13 08:08:06;;;;;;;12.38;2.78;;;16.30;99.90;;;16.30;59.29;101892.84;5075039;28;20689;-65
2021/06/13 08:10:34;;;;;;;10.13;2.50;;;16.40;99.90;;;16.34;59.01;101884.72;5092773;28;20184;-66
2021/06/13 08:13:02;;;;;;;9.95;2.30;;;16.40;99.90;;;16.38;58.99;101893.38;5093111;28;20213;-66
2021/06/13 08:15:30;;;;;;;9.02;2.08;;;16.40;99.90;;;16.43;58.86;101901.97;5074437;28;20594;-65
2021/06/13 08:17:57;;;;;;;8.98;2.60;;;16.40;99.90;;;16.47;58.69;101903.59;5101544;28;20191;-65
2021/06/13 08:20:24;;;;;;;7.68;2.13;;;16.50;99.90;;;16.53;58.74;101916.53;5092060;28;20180;-66
2021/06/13 08:22:53;;;;;;;10.68;1.88;;;16.60;99.90;;;16.56;58.36;101908.47;5092908;28;20678;-65
2021/06/13 08:25:20;;;;;;;9.38;2.20;;;16.60;99.90;;;16.57;58.63;101914.63;5092740;28;20277;-66
2021/06/13 08:27:47;;;;;;;7.53;2.17;;;16.60;99.90;;;16.66;58.05;101915.06;5092707;28;20207;-66
2021/06/13 08:30:17;;;;;;;11.88;2.30;;;16.70;99.90;;;16.84;57.89;101914.31;5074328;28;20210;-66
2021/06/13 08:32:46;;;;;;;6.90;1.92;;;17.00;99.90;;;17.02;57.38;101913.47;5092536;28;20195;-66
2021/06/13 08:35:17;;;;;;;8.52;2.10;;;17.20;99.90;;;17.15;57.13;101913.78;5092295;28;20186;-65
2021/06/13 08:37:44;;;;;;;9.70;2.17;;;17.30;99.90;;;17.17;57.23;101907.50;5074930;28;20215;-66
2021/06/13 08:40:13;;;;;;;11.25;2.50;;;17.40;99.90;;;17.27;57.61;101916.72;5092528;28;20583;-65
2021/06/13 08:42:43;;;;;;;10.10;2.70;;;17.50;99.90;;;17.45;57.39;101913.25;5092602;28;20187;-66
2021/06/13 08:45:13;;;;;;;8.93;2.15;;;17.80;99.90;;;17.58;57.35;101923.28;5092467;28;20186;-66
2021/06/13 08:47:41;;;;;;;10.80;2.45;;;17.90;99.90;;;17.52;57.28;101922.66;5096986;28;20210;-66
2021/06/13 08:50:11;;;;;;;9.70;2.53;;;17.80;99.90;;;17.42;57.51;101929.25;5075401;28;20674;-66
2021/06/13 08:52:38;;;;;;;11.52;2.80;;;17.80;99.90;;;17.39;57.74;101926.75;5075611;28;20668;-64
2021/06/13 08:55:07;;;;;;;11.35;2.60;;;17.70;99.90;;;17.34;58.03;101938.47;5094557;28;20180;-64
2021/06/13 08:57:35;;;;;;;10.57;2.30;;;17.70;99.90;;;17.24;58.51;101937.19;5093601;28;20213;-65
2021/06/13 09:00:03;;;;;;;11.70;2.85;;;17.50;99.90;;;17.20;58.80;101943.53;5092179;28;20234;-65
2021/06/13 09:02:31;;;;;;;13.35;4.75;;;17.50;99.90;;;17.18;58.64;101940.13;5091854;28;20179;-65
2021/06/13 09:04:58;;;;;;;17.02;4.47;;;17.40;99.90;;;17.09;58.63;101937.88;5092482;28;20179;-66
2021/06/13 09:07:26;;;;;;;14.05;3.22;;;17.30;99.90;;;17.01;58.93;101946.13;5092478;28;20575;-65
2021/06/13 09:09:55;;;;;;;12.80;3.00;;;17.20;99.90;;;16.97;59.30;101949.84;5093082;28;20716;-67
2021/06/13 09:12:24;;;;;;;12.30;2.50;;;17.10;99.90;;;16.94;59.34;101957.06;5091873;28;20198;-67
2021/06/13 09:14:53;;;;;;;11.40;2.90;;;17.00;99.90;;;16.91;59.63;101958.03;5092069;28;20190;-64
2021/06/13 09:17:25;;;;;;;8.10;2.33;;;17.00;99.90;;;16.86;59.39;101959.19;5074518;28;20211;-69
2021/06/13 09:20:17;;;;;;;10.05;2.35;;;16.80;99.90;;;16.75;59.39;101967.56;5096361;28;20211;-65
2021/06/13 09:23:09;;;;;;;10.35;2.50;;;16.70;99.90;;;16.67;59.82;101964.41;5075205;28;20191;-68
2021/06/13 09:25:40;;;;;;;9.85;2.70;;;16.60;99.90;;;16.50;60.90;101955.44;5092075;28;20198;-66
2021/06/13 09:28:14;;;;;;;7.80;2.20;;;16.40;99.90;;;16.30;62.10;101970.34;5074980;28;20217;-67
2021/06/13 09:30:45;;;;;;;11.68;2.65;;;16.10;99.90;;;16.18;62.89;101978.75;5093143;28;20187;-66
2021/06/13 09:33:16;;;;;;;10.30;2.42;;;16.00;99.90;;;16.17;62.86;101976.16;5093269;28;20194;-67
2021/06/13 09:35:45;;;;;;;10.45;2.63;;;16.00;99.90;;;16.18;63.46;101975.25;5093571;28;20210;-66
2021/06/13 09:38:18;;;;;;;11.52;2.92;;;15.90;99.90;;;16.16;63.97;101979.72;5093533;28;20195;-66
2021/06/13 09:40:51;;;;;;;11.85;2.80;;;15.90;99.90;;;16.13;64.52;101980.72;5092748;28;20188;-65
2021/06/13 09:43:26;;;;;;;8.38;2.60;;;15.90;99.90;;;16.14;64.90;101985.06;5092997;28;20240;-66
2021/06/13 09:46:06;;;;;;;9.70;2.60;;;16.00;99.90;;;16.17;64.93;101984.09;5074348;28;20207;-65
2021/06/13 09:48:36;;;;;;;12.32;2.80;;;16.00;99.90;;;16.27;64.84;101986.31;5097926;28;20572;-65
2021/06/13 09:51:06;;;;;;;14.40;2.70;;;16.10;99.90;;;16.44;64.48;101990.91;5100684;28;20191;-65
2021/06/13 09:53:44;;;;;;;11.85;2.75;;;16.30;99.90;;;16.57;64.42;101983.34;5092482;28;20659;-65
2021/06/13 09:56:19;;;;;;;9.18;2.55;;;16.50;99.90;;;16.67;63.78;101982.91;5092131;28;20202;-68
2021/06/13 09:58:50;;;;;;;10.98;2.65;;;16.70;99.90;;;16.81;63.10;101975.22;5092365;28;20305;-65
2021/06/13 10:01:20;;;;;;;9.77;2.97;;;16.90;99.90;;;17.03;62.79;101980.47;5092355;28;20565;-66
2021/06/13 10:03:48;;;;;;;11.52;3.15;;;17.20;99.90;;;17.20;62.08;101984.09;5092225;28;20237;-66
2021/06/13 10:06:19;;;;;;;11.65;2.78;;;17.40;99.90;;;17.34;60.99;101984.34;5092419;28;20209;-66
2021/06/13 10:08:48;;;;;;;11.60;2.90;;;17.60;99.90;;;17.49;60.48;101983.69;5092082;28;20187;-65
2021/06/13 10:11:17;;;;;;;10.52;2.67;;;17.80;99.90;;;17.57;60.10;101977.16;5074071;28;20244;-64
2021/06/13 10:13:51;;;;;;;10.90;2.70;;;17.90;99.90;;;17.67;59.60;101976.66;5092204;28;20191;-65
2021/06/13 10:16:30;;;;;;;9.30;2.55;;;18.00;99.90;;;17.66;58.97;101963.50;5073903;28;20211;-67
2021/06/13 10:19:01;;;;;;;9.68;2.30;;;18.00;99.90;;;17.59;59.08;101972.66;5104399;28;20198;-64
2021/06/13 10:21:34;;;;;;;12.25;2.45;;;17.90;99.90;;;17.56;58.83;101975.44;5095720;28;20193;-65